Time;durP1;ratioP1;P1;durP2;ratioP2;P2;SDS_P1;SDS_P2;PMS_P1;PMS_P2;Temp;Humidity;BMP_temperature;BMP_pressure;BME280_temperature;BME280_humidity;BME280_pressure;Samples;Min_cycle;Max_cycle;Signal;HPM_P1;HPM_P2
2022/03/10 00:00:56;;;;;;;14.25;10.20;;;6.70;78.60;;;;;;5122002;27;20130;-71
2022/03/10 00:03:22;;;;;;;18.15;10.82;;;5.90;78.70;;;;;;5127030;27;20433;-71
2022/03/10 00:05:48;;;;;;;17.25;10.43;;;5.80;79.00;;;;;;5128946;27;20056;-71
2022/03/10 00:08:13;;;;;;;16.63;10.75;;;5.80;79.50;;;;;;5130001;27;20050;-71
2022/03/10 00:10:39;;;;;;;18.88;11.02;;;5.70;79.80;;;;;;5128001;27;20077;-70
2022/03/10 00:13:05;;;;;;;19.25;11.07;;;5.70;80.80;;;;;;5128086;27;20047;-70
2022/03/10 00:15:31;;;;;;;18.02;10.25;;;5.70;81.30;;;;;;5131247;27;20046;-71
2022/03/10 00:17:56;;;;;;;15.75;10.48;;;5.60;81.60;;;;;;5128588;27;20031;-71
2022/03/10 00:20:22;;;;;;;21.92;10.50;;;6.70;83.10;;;;;;5111267;27;20039;-71
2022/03/10 00:22:51;;;;;;;17.15;10.25;;;5.60;83.70;;;;;;5128112;27;20167;-70
2022/03/10 00:25:17;;;;;;;16.63;10.13;;;6.80;84.00;;;;;;5128544;27;20521;-70
2022/03/10 00:27:43;;;;;;;18.48;11.00;;;6.40;84.10;;;;;;5126676;27;20039;-71
2022/03/10 00:30:09;;;;;;;19.20;11.30;;;5.50;84.80;;;;;;5130598;27;20166;-71
2022/03/10 00:32:49;;;;;;;17.45;10.77;;;5.50;84.80;;;;;;5126607;27;20139;-71
2022/03/10 00:35:17;;;;;;;17.30;11.25;;;5.40;86.20;;;;;;5129703;27;20131;-71
2022/03/10 00:37:44;;;;;;;19.33;11.55;;;5.30;86.60;;;;;;5127151;27;20046;-71
2022/03/10 00:40:10;;;;;;;17.52;10.43;;;5.30;87.20;;;;;;5130147;27;20066;-70
2022/03/10 00:42:37;;;;;;;17.67;11.02;;;5.20;87.80;;;;;;5130697;27;20051;-71
2022/03/10 00:45:03;;;;;;;17.30;11.18;;;5.50;88.70;;;;;;5132181;27;20039;-70
2022/03/10 00:47:30;;;;;;;18.15;11.00;;;5.20;88.60;;;;;;5125691;27;20450;-71
2022/03/10 00:49:56;;;;;;;17.35;10.93;;;5.20;89.30;;;;;;5117568;27;20094;-71
2022/03/10 00:52:21;;;;;;;17.20;11.02;;;5.10;89.10;;;;;;5123131;27;20113;-71
2022/03/10 00:54:47;;;;;;;16.73;10.55;;;5.10;90.10;;;;;;5106852;28;20196;-71
2022/03/10 00:57:13;;;;;;;16.20;10.50;;;5.10;90.30;;;;;;5126135;27;20059;-71
2022/03/10 00:59:38;;;;;;;17.17;11.02;;;5.00;90.40;;;;;;5128836;27;20403;-71
2022/03/10 01:02:04;;;;;;;17.13;11.05;;;5.00;90.60;;;;;;5126406;27;20407;-71
2022/03/10 01:04:29;;;;;;;17.55;10.05;;;5.00;91.00;;;;;;5127687;27;20043;-71
2022/03/10 01:06:55;;;;;;;15.82;10.45;;;4.90;91.20;;;;;;5127221;27;20046;-71
2022/03/10 01:09:21;;;;;;;16.17;10.68;;;4.90;91.70;;;;;;5127524;27;20692;-71
2022/03/10 01:11:46;;;;;;;17.02;11.07;;;4.90;92.30;;;;;;5110147;27;20391;-71
2022/03/10 01:14:12;;;;;;;18.83;10.35;;;4.80;92.10;;;;;;5129200;27;20054;-71
2022/03/10 01:16:38;;;;;;;14.82;10.32;;;4.80;92.50;;;;;;5126415;28;20039;-71
2022/03/10 01:19:04;;;;;;;16.80;10.95;;;4.70;92.80;;;;;;5126525;28;20043;-71
2022/03/10 01:21:30;;;;;;;19.05;11.30;;;4.70;93.10;;;;;;5119709;28;20180;-71
2022/03/10 01:23:55;;;;;;;16.77;10.93;;;4.60;93.20;;;;;;5117800;28;20048;-71
2022/03/10 01:26:21;;;;;;;18.20;10.60;;;4.60;93.30;;;;;;5102142;28;20476;-71
2022/03/10 01:28:47;;;;;;;18.30;11.38;;;4.50;94.20;;;;;;5126563;28;20138;-71
2022/03/10 01:31:12;;;;;;;18.92;11.00;;;4.80;94.30;;;;;;5129389;27;20042;-71
2022/03/10 01:33:38;;;;;;;19.45;10.82;;;4.50;94.40;;;;;;5127116;27;20456;-71
2022/03/10 01:36:04;;;;;;;16.33;10.55;;;4.40;95.20;;;;;;5128134;28;20110;-70
2022/03/10 01:38:29;;;;;;;18.75;10.85;;;4.40;95.40;;;;;;5126695;28;20060;-71
2022/03/10 01:40:55;;;;;;;17.75;10.98;;;4.30;95.50;;;;;;5129131;28;20064;-71
2022/03/10 01:43:21;;;;;;;20.73;11.38;;;4.30;96.10;;;;;;5126326;28;20495;-71
2022/03/10 01:45:46;;;;;;;20.00;11.18;;;4.30;96.50;;;;;;5127337;28;20125;-71
2022/03/10 01:48:12;;;;;;;21.98;11.13;;;4.30;96.60;;;;;;5125401;28;20093;-71
2022/03/10 01:50:37;;;;;;;20.13;11.48;;;4.30;97.20;;;;;;5127099;28;20480;-71
2022/03/10 01:53:03;;;;;;;18.17;10.95;;;4.80;97.40;;;;;;5129314;27;20043;-71
2022/03/10 01:55:29;;;;;;;18.00;11.23;;;4.20;97.30;;;;;;5130670;27;20100;-71
2022/03/10 01:57:55;;;;;;;17.00;10.60;;;4.10;97.70;;;;;;5130432;27;20537;-71
2022/03/10 02:00:21;;;;;;;17.80;11.40;;;4.10;98.10;;;;;;5131055;27;20096;-71
2022/03/10 02:02:47;;;;;;;17.85;11.05;;;4.00;97.90;;;;;;5112221;27;20715;-71
2022/03/10 02:05:12;;;;;;;18.13;11.25;;;5.20;98.50;;;;;;5127469;27;20067;-71
2022/03/10 02:10:26;;;;;;;18.75;11.57;;;3.90;98.90;;;;;;5124835;27;20062;-72
2022/03/10 02:12:54;;;;;;;18.35;11.50;;;3.90;99.00;;;;;;5126383;27;20042;-71
2022/03/10 02:18:11;;;;;;;16.73;11.35;;;3.80;99.30;;;;;;5129558;27;20051;-71
2022/03/10 02:20:38;;;;;;;19.08;11.00;;;3.80;99.50;;;;;;5132204;27;20364;-71
2022/03/10 02:23:06;;;;;;;16.42;10.88;;;3.70;99.80;;;;;;5131640;27;20043;-72
2022/03/10 02:25:33;;;;;;;18.42;11.13;;;3.70;99.70;;;;;;5133525;27;20050;-72
2022/03/10 02:27:59;;;;;;;18.45;11.20;;;4.20;99.90;;;;;;5134665;27;20043;-72
2022/03/10 02:30:28;;;;;;;16.88;11.43;;;3.60;99.90;;;;;;5131389;27;20212;-71
2022/03/10 02:32:54;;;;;;;18.70;10.98;;;4.70;99.90;;;;;;5128757;27;20131;-71
2022/03/10 02:35:20;;;;;;;18.88;11.80;;;3.60;99.90;;;;;;5131464;27;20138;-72
2022/03/10 02:37:46;;;;;;;21.38;10.95;;;3.60;99.90;;;;;;5128929;27;20082;-71
2022/03/10 02:40:12;;;;;;;16.50;11.52;;;3.60;99.90;;;;;;5130660;27;20035;-72
2022/03/10 02:42:38;;;;;;;21.20;11.43;;;4.80;99.90;;;;;;5129822;27;20047;-71
2022/03/10 02:45:05;;;;;;;18.23;11.20;;;3.60;99.90;;;;;;5130950;27;20047;-71
2022/03/10 02:47:31;;;;;;;21.27;12.18;;;3.50;99.90;;;;;;5128091;27;20047;-71
2022/03/10 02:49:56;;;;;;;18.17;11.30;;;3.40;99.90;;;;;;5126981;27;20067;-72
2022/03/10 02:52:22;;;;;;;16.92;11.45;;;4.60;99.90;;;;;;5121559;27;20122;-71
2022/03/10 02:54:49;;;;;;;18.55;11.45;;;3.40;99.90;;;;;;5129399;27;20065;-72
2022/03/10 02:57:15;;;;;;;21.02;12.32;;;3.40;99.90;;;;;;5130272;27;20081;-71
2022/03/10 02:59:41;;;;;;;17.13;11.73;;;3.50;99.90;;;;;;5112831;27;20483;-72
2022/03/10 03:02:07;;;;;;;19.02;11.50;;;3.50;99.90;;;;;;5128671;27;20598;-71
2022/03/10 03:04:33;;;;;;;16.80;11.10;;;3.40;99.90;;;;;;5128303;27;20051;-71
2022/03/10 03:06:59;;;;;;;17.65;11.50;;;3.40;99.90;;;;;;5129403;27;20122;-71
2022/03/10 03:09:25;;;;;;;19.88;11.77;;;3.30;99.90;;;;;;5131095;27;20441;-71
2022/03/10 03:11:51;;;;;;;18.98;11.43;;;4.60;99.90;;;;;;5129866;27;20072;-71
2022/03/10 03:14:17;;;;;;;19.52;11.60;;;3.30;99.90;;;;;;5129253;27;20104;-71
2022/03/10 03:16:43;;;;;;;19.15;11.85;;;4.70;99.90;;;;;;5129031;27;20081;-71
2022/03/10 03:19:09;;;;;;;22.73;12.02;;;3.40;99.90;;;;;;5129638;27;20069;-71
2022/03/10 03:21:35;;;;;;;17.92;10.95;;;3.30;99.90;;;;;;5123838;27;20343;-71
2022/03/10 03:24:01;;;;;;;19.30;11.80;;;3.40;99.90;;;;;;5132504;27;20130;-71
2022/03/10 03:26:26;;;;;;;21.27;11.43;;;3.30;99.90;;;;;;5112600;27;20051;-71
2022/03/10 03:28:52;;;;;;;21.00;12.27;;;3.30;99.90;;;;;;5128421;27;20043;-71
2022/03/10 03:31:20;;;;;;;17.73;11.82;;;3.30;99.90;;;;;;5129445;27;20384;-71
2022/03/10 03:33:46;;;;;;;22.77;12.82;;;3.30;99.90;;;;;;5128023;27;20528;-71
2022/03/10 03:36:11;;;;;;;16.50;10.88;;;3.30;99.90;;;;;;5129212;27;20072;-71
2022/03/10 03:38:37;;;;;;;19.10;11.40;;;3.30;99.90;;;;;;5127924;27;20376;-71
2022/03/10 03:41:03;;;;;;;21.67;10.55;;;3.30;99.90;;;;;;5129974;27;20138;-70
2022/03/10 03:43:28;;;;;;;18.08;11.65;;;3.30;99.90;;;;;;5128931;27;20050;-70
2022/03/10 03:45:56;;;;;;;19.85;12.07;;;3.20;99.90;;;;;;5129378;27;20042;-70
2022/03/10 03:48:24;;;;;;;20.23;12.02;;;3.20;99.90;;;;;;5110445;27;20039;-71
2022/03/10 03:50:50;;;;;;;17.77;11.00;;;3.20;99.90;;;;;;5129885;27;20047;-70
2022/03/10 03:53:15;;;;;;;17.45;11.40;;;3.20;99.90;;;;;;5129920;27;20118;-71
2022/03/10 03:55:41;;;;;;;17.85;11.43;;;3.10;99.90;;;;;;5128007;27;20145;-70
2022/03/10 03:58:07;;;;;;;19.45;11.30;;;3.10;99.90;;;;;;5142201;27;20072;-71
2022/03/10 04:00:34;;;;;;;18.45;11.55;;;3.10;99.90;;;;;;5150481;27;20103;-70
2022/03/10 04:03:11;;;;;;;26.80;11.80;;;3.00;99.90;;;;;;5110586;27;20039;-71
2022/03/10 04:05:38;;;;;;;;;;;3.00;99.90;;;;;;5133644;27;20039;-70
2022/03/10 04:08:05;;;;;;;17.70;10.98;;;3.00;99.90;;;;;;5150230;27;20294;-70
2022/03/10 04:10:31;;;;;;;19.50;11.50;;;3.30;99.90;;;;;;5149220;27;20050;-71
2022/03/10 04:12:57;;;;;;;18.00;10.95;;;3.00;99.90;;;;;;5132339;27;20375;-71
2022/03/10 04:15:23;;;;;;;19.13;11.65;;;3.00;99.90;;;;;;5151051;27;20050;-70
2022/03/10 04:17:49;;;;;;;17.58;11.18;;;3.00;99.90;;;;;;5148049;27;20474;-71
2022/03/10 04:20:14;;;;;;;22.80;11.25;;;3.00;99.90;;;;;;5133357;27;20035;-70
2022/03/10 04:22:41;;;;;;;17.13;11.60;;;3.00;99.90;;;;;;5133367;27;20046;-71
2022/03/10 04:25:08;;;;;;;18.50;11.07;;;3.00;99.90;;;;;;5134311;27;20034;-71
2022/03/10 04:27:34;;;;;;;18.88;11.48;;;3.00;99.90;;;;;;5149805;27;20074;-71
2022/03/10 04:30:00;;;;;;;18.55;11.45;;;3.00;99.90;;;;;;5150590;27;20042;-70
2022/03/10 04:32:25;;;;;;;18.30;11.35;;;3.00;99.90;;;;;;5149020;27;20091;-72
2022/03/10 04:34:51;;;;;;;20.30;11.45;;;3.00;99.90;;;;;;5149718;27;20046;-71
2022/03/10 04:37:17;;;;;;;17.30;10.48;;;3.50;99.90;;;;;;5114245;27;20055;-71
2022/03/10 04:39:42;;;;;;;19.27;11.30;;;3.10;99.90;;;;;;5130264;27;20035;-71
2022/03/10 04:42:08;;;;;;;16.45;10.77;;;3.20;99.90;;;;;;5150125;27;20120;-71
2022/03/10 04:44:34;;;;;;;19.80;10.90;;;4.00;99.90;;;;;;5131655;27;20087;-71
2022/03/10 04:47:00;;;;;;;16.92;10.65;;;3.20;99.90;;;;;;5149308;27;20478;-71
2022/03/10 04:49:25;;;;;;;17.63;10.88;;;3.20;99.90;;;;;;5132605;27;20152;-72
2022/03/10 04:51:51;;;;;;;15.10;10.73;;;3.20;99.90;;;;;;5128000;27;20058;-71
2022/03/10 04:54:17;;;;;;;16.67;11.07;;;3.20;99.90;;;;;;5130495;27;20038;-71
2022/03/10 04:56:43;;;;;;;16.65;10.90;;;3.20;99.90;;;;;;5130913;27;20046;-71
2022/03/10 04:59:08;;;;;;;18.15;10.52;;;3.10;99.90;;;;;;5148501;27;20061;-71
2022/03/10 05:01:34;;;;;;;18.45;11.45;;;3.10;99.90;;;;;;5117108;27;20124;-71
2022/03/10 05:03:59;;;;;;;18.60;11.35;;;3.10;99.90;;;;;;5143345;27;20058;-71
2022/03/10 05:06:25;;;;;;;15.20;10.65;;;3.60;99.90;;;;;;5131212;27;20049;-71
2022/03/10 05:08:51;;;;;;;15.90;10.88;;;3.10;99.90;;;;;;5129298;27;20050;-71
2022/03/10 05:11:16;;;;;;;18.25;10.75;;;3.10;99.90;;;;;;5131323;27;20448;-71
2022/03/10 05:13:42;;;;;;;21.42;10.70;;;3.90;99.90;;;;;;5130701;27;20082;-71
2022/03/10 05:16:08;;;;;;;19.10;10.77;;;3.10;99.90;;;;;;5131054;27;20046;-71
2022/03/10 05:18:33;;;;;;;17.95;10.95;;;3.60;99.90;;;;;;5147575;27;20101;-71
2022/03/10 05:20:59;;;;;;;21.35;10.85;;;3.10;99.90;;;;;;5131018;27;20487;-71
2022/03/10 05:23:24;;;;;;;18.00;11.23;;;3.10;99.90;;;;;;5130279;27;20039;-71
2022/03/10 05:25:50;;;;;;;18.67;11.07;;;3.10;99.90;;;;;;5149478;27;20043;-71
2022/03/10 05:28:16;;;;;;;17.45;10.90;;;3.10;99.90;;;;;;5131594;27;20086;-71
2022/03/10 05:30:42;;;;;;;16.70;11.07;;;3.10;99.90;;;;;;5134281;27;20057;-71
2022/03/10 05:33:10;;;;;;;17.63;11.40;;;3.10;99.90;;;;;;5133702;27;20081;-71
2022/03/10 05:35:35;;;;;;;18.77;10.95;;;3.00;99.90;;;;;;5134177;27;20046;-71
2022/03/10 05:38:02;;;;;;;19.17;11.35;;;3.00;99.90;;;;;;5134478;27;20047;-71
2022/03/10 05:40:28;;;;;;;21.77;10.93;;;3.00;99.90;;;;;;5117860;27;20054;-71
2022/03/10 05:42:55;;;;;;;16.08;10.57;;;3.00;99.90;;;;;;5152762;27;20379;-71
2022/03/10 05:45:22;;;;;;;18.92;10.90;;;3.00;99.90;;;;;;5135044;27;20114;-71
2022/03/10 05:47:48;;;;;;;19.48;10.90;;;3.00;99.90;;;;;;5132244;27;20046;-71
2022/03/10 05:50:14;;;;;;;17.77;11.15;;;3.00;99.90;;;;;;5136517;27;20134;-71
2022/03/10 05:52:40;;;;;;;21.00;11.75;;;3.00;99.90;;;;;;5131684;27;20482;-71
2022/03/10 05:55:07;;;;;;;17.00;11.65;;;2.90;99.90;;;;;;5098409;27;20101;-71
2022/03/10 05:57:33;;;;;;;19.05;11.73;;;2.90;99.90;;;;;;5106629;27;20062;-71
2022/03/10 05:59:59;;;;;;;18.13;11.52;;;2.90;99.90;;;;;;5152705;27;20042;-71
2022/03/10 06:02:25;;;;;;;18.20;11.70;;;2.90;99.90;;;;;;5133468;27;20046;-71
2022/03/10 06:04:50;;;;;;;21.80;12.15;;;2.90;99.90;;;;;;5151232;27;20083;-71
2022/03/10 06:07:16;;;;;;;19.13;11.60;;;2.80;99.90;;;;;;5133763;27;20409;-71
2022/03/10 06:09:42;;;;;;;19.00;11.20;;;2.80;99.90;;;;;;5134064;27;20039;-71
2022/03/10 06:12:09;;;;;;;17.88;11.00;;;2.80;99.90;;;;;;5133266;27;20472;-71
2022/03/10 06:14:38;;;;;;;16.95;11.70;;;2.80;99.90;;;;;;5133742;27;20057;-71
2022/03/10 06:17:04;;;;;;;20.63;12.07;;;2.80;99.90;;;;;;5135108;27;20115;-71
2022/03/10 06:19:29;;;;;;;18.35;11.30;;;3.60;99.90;;;;;;5132292;27;20046;-71
2022/03/10 06:21:55;;;;;;;17.85;10.70;;;2.80;99.90;;;;;;5152135;27;20055;-72
2022/03/10 06:24:20;;;;;;;22.15;11.70;;;2.80;99.90;;;;;;5152475;27;20142;-71
2022/03/10 06:26:46;;;;;;;18.63;11.57;;;2.80;99.90;;;;;;5134233;27;20043;-70
2022/03/10 06:29:13;;;;;;;18.73;11.77;;;2.90;99.90;;;;;;5122694;27;20111;-71
2022/03/10 06:31:40;;;;;;;21.13;11.55;;;2.90;99.90;;;;;;5147779;27;20418;-71
2022/03/10 06:34:06;;;;;;;17.15;10.88;;;3.00;99.90;;;;;;5132521;27;20096;-71
2022/03/10 06:36:32;;;;;;;20.70;12.32;;;3.00;99.90;;;;;;5132988;27;20070;-71
2022/03/10 06:38:57;;;;;;;19.85;12.25;;;3.00;99.90;;;;;;5150993;27;20059;-71
2022/03/10 06:41:23;;;;;;;19.17;11.43;;;3.10;99.90;;;;;;5151017;27;20517;-71
2022/03/10 06:43:49;;;;;;;19.23;11.27;;;3.10;99.90;;;;;;5132847;27;20103;-71
2022/03/10 06:46:15;;;;;;;18.63;11.73;;;3.10;99.90;;;;;;5129161;27;20062;-72
2022/03/10 06:48:41;;;;;;;19.58;11.48;;;4.30;99.90;;;;;;5147430;27;20074;-70
2022/03/10 06:51:07;;;;;;;20.08;12.20;;;3.20;99.90;;;;;;5152470;27;20074;-71
2022/03/10 06:53:32;;;;;;;20.27;12.35;;;3.40;99.90;;;;;;5110598;27;20047;-72
2022/03/10 06:55:58;;;;;;;17.48;11.35;;;3.90;99.90;;;;;;5112827;27;20129;-72
2022/03/10 06:58:24;;;;;;;20.80;11.50;;;5.80;99.90;;;;;;5127979;27;20479;-72
2022/03/10 07:00:50;;;;;;;19.52;11.82;;;4.90;99.90;;;;;;5131559;27;20074;-72
2022/03/10 07:03:16;;;;;;;19.90;12.13;;;6.00;99.60;;;;;;5116317;27;20046;-72
2022/03/10 07:05:42;;;;;;;16.45;11.50;;;7.00;98.20;;;;;;5132109;27;20117;-71
2022/03/10 07:08:08;;;;;;;19.05;11.60;;;7.70;96.60;;;;;;5131369;27;20043;-74
2022/03/10 07:10:33;;;;;;;18.42;11.82;;;7.90;95.70;;;;;;5132403;27;20114;-71
2022/03/10 07:12:59;;;;;;;18.65;11.27;;;9.20;95.20;;;;;;5132014;27;20199;-72
2022/03/10 07:15:25;;;;;;;18.63;11.55;;;9.60;94.10;;;;;;5132400;27;20046;-71
2022/03/10 07:17:50;;;;;;;19.65;12.15;;;10.60;93.30;;;;;;5148322;27;20126;-70
2022/03/10 07:20:18;;;;;;;16.40;11.48;;;10.40;92.00;;;;;;5151502;27;20458;-71
2022/03/10 07:22:46;;;;;;;21.58;11.38;;;11.40;90.70;;;;;;5132448;27;20110;-73
2022/03/10 07:25:12;;;;;;;17.42;11.65;;;12.40;88.10;;;;;;5130663;27;20081;-73
2022/03/10 07:27:38;;;;;;;19.45;11.93;;;12.70;85.50;;;;;;5127989;27;20082;-71
2022/03/10 07:30:05;;;;;;;16.83;11.55;;;12.20;83.40;;;;;;5145291;27;20074;-71
2022/03/10 07:32:31;;;;;;;18.45;11.88;;;11.70;81.80;;;;;;5131197;27;20203;-71
2022/03/10 07:34:56;;;;;;;16.25;11.73;;;12.30;81.10;;;;;;5149987;27;20534;-73
2022/03/10 07:37:22;;;;;;;18.98;13.07;;;11.80;81.00;;;;;;5131723;27;20047;-73
2022/03/10 07:39:48;;;;;;;16.63;11.52;;;11.90;80.00;;;;;;5113103;27;20061;-72
2022/03/10 07:42:15;;;;;;;17.65;11.85;;;11.90;79.30;;;;;;5132669;27;20043;-71
2022/03/10 07:44:41;;;;;;;15.32;11.10;;;12.60;79.40;;;;;;5129917;27;20372;-72
2022/03/10 07:47:06;;;;;;;19.55;11.68;;;12.30;77.40;;;;;;5131088;27;20035;-72
2022/03/10 07:49:32;;;;;;;17.75;11.90;;;12.00;76.80;;;;;;5129281;27;20062;-72
2022/03/10 07:51:59;;;;;;;15.38;11.63;;;12.60;76.60;;;;;;5128395;27;20495;-71
2022/03/10 07:54:25;;;;;;;19.88;12.13;;;12.70;75.90;;;;;;5129759;27;20098;-72
2022/03/10 07:56:51;;;;;;;19.70;11.75;;;13.20;74.60;;;;;;5148886;27;20081;-72
2022/03/10 07:59:17;;;;;;;17.67;11.40;;;14.30;73.70;;;;;;5136366;27;20039;-71
2022/03/10 08:01:43;;;;;;;16.65;11.45;;;16.10;71.60;;;;;;5110632;27;20053;-72
2022/03/10 08:04:08;;;;;;;22.13;11.80;;;15.00;67.90;;;;;;5092195;27;20423;-72
2022/03/10 08:06:34;;;;;;;15.60;11.48;;;14.00;69.00;;;;;;5109656;27;20135;-72
2022/03/10 08:09:02;;;;;;;17.42;12.27;;;12.50;69.00;;;;;;5113092;27;20062;-71
2022/03/10 08:11:28;;;;;;;16.45;11.90;;;12.30;71.00;;;;;;5130547;27;20046;-72
2022/03/10 08:13:54;;;;;;;16.88;12.07;;;15.00;70.40;;;;;;5130640;27;20046;-72
2022/03/10 08:16:20;;;;;;;19.23;12.02;;;15.70;67.50;;;;;;5131435;27;20119;-72
2022/03/10 08:18:47;;;;;;;19.45;11.70;;;17.30;64.90;;;;;;5119598;27;20067;-72
2022/03/10 08:21:12;;;;;;;16.95;11.30;;;18.60;62.00;;;;;;5130838;27;20043;-72
2022/03/10 08:23:38;;;;;;;18.73;12.02;;;19.90;58.70;;;;;;5133061;27;20038;-72
2022/03/10 08:26:04;;;;;;;20.55;12.20;;;21.10;56.10;;;;;;5133835;27;20050;-72
2022/03/10 08:28:29;;;;;;;15.38;11.80;;;21.80;54.20;;;;;;5130757;27;20379;-72
2022/03/10 08:30:56;;;;;;;15.88;11.23;;;21.90;51.80;;;;;;5130624;27;20134;-70
2022/03/10 08:33:22;;;;;;;17.60;11.80;;;19.60;51.50;;;;;;5148810;27;20483;-71
2022/03/10 08:35:48;;;;;;;14.25;10.95;;;17.60;53.20;;;;;;5113540;27;20050;-72
2022/03/10 08:38:13;;;;;;;17.30;11.85;;;16.40;54.50;;;;;;5148658;27;20103;-72
2022/03/10 08:40:39;;;;;;;16.42;11.25;;;15.60;55.60;;;;;;5148703;27;20389;-72
2022/03/10 08:43:06;;;;;;;19.67;11.02;;;14.50;57.60;;;;;;5131498;27;20137;-75
2022/03/10 08:45:32;;;;;;;15.27;11.10;;;13.90;58.50;;;;;;5130721;27;20091;-71
2022/03/10 08:47:57;;;;;;;16.90;11.63;;;13.50;59.70;;;;;;5130414;27;20050;-71
2022/03/10 08:50:24;;;;;;;17.38;11.40;;;13.90;60.50;;;;;;5117722;27;20047;-72
2022/03/10 08:52:50;;;;;;;17.85;11.68;;;16.50;58.90;;;;;;5117048;27;20402;-72
2022/03/10 08:55:17;;;;;;;18.77;12.35;;;18.50;55.50;;;;;;5131905;27;20038;-71
2022/03/10 08:57:42;;;;;;;19.35;13.00;;;20.40;53.80;;;;;;5126133;27;20074;-72
2022/03/10 09:00:10;;;;;;;17.00;11.77;;;21.80;51.10;;;;;;5130119;27;20530;-72
2022/03/10 09:02:36;;;;;;;16.00;11.63;;;22.90;49.00;;;;;;5124168;27;20072;-73
2022/03/10 09:05:02;;;;;;;16.58;10.95;;;23.60;47.20;;;;;;5127709;27;20043;-73
2022/03/10 09:07:28;;;;;;;18.33;11.90;;;24.50;46.60;;;;;;5127082;27;20126;-72
2022/03/10 09:09:54;;;;;;;16.67;11.10;;;25.10;44.60;;;;;;5131533;27;20118;-72
2022/03/10 09:12:19;;;;;;;16.02;11.43;;;25.40;43.50;;;;;;5128669;27;20118;-73
2022/03/10 09:14:45;;;;;;;16.77;11.32;;;25.70;43.10;;;;;;5128739;27;20045;-73
2022/03/10 09:17:11;;;;;;;15.07;11.25;;;26.30;43.00;;;;;;5125966;27;20411;-73
2022/03/10 09:19:36;;;;;;;14.18;11.02;;;26.70;42.50;;;;;;5108016;28;20043;-73
2022/03/10 09:22:02;;;;;;;14.98;11.32;;;27.70;42.30;;;;;;5128069;27;20050;-73
2022/03/10 09:24:30;;;;;;;14.15;11.18;;;28.50;41.90;;;;;;5109700;28;20106;-73
2022/03/10 09:26:56;;;;;;;13.35;10.68;;;29.10;40.60;;;;;;5126172;28;20043;-72
2022/03/10 09:29:22;;;;;;;13.60;10.93;;;30.00;39.70;;;;;;5115118;27;20050;-72
2022/03/10 09:31:48;;;;;;;16.58;10.80;;;29.80;38.40;;;;;;5116050;28;20621;-71
2022/03/10 09:34:14;;;;;;;15.73;10.35;;;30.30;37.80;;;;;;5126237;27;20233;-71
2022/03/10 09:36:40;;;;;;;16.75;10.85;;;30.70;37.50;;;;;;5125842;28;20523;-71
2022/03/10 09:39:06;;;;;;;13.35;10.82;;;31.40;36.90;;;;;;5124004;28;20148;-72
2022/03/10 09:41:32;;;;;;;12.73;10.38;;;31.50;36.90;;;;;;5109647;28;20353;-72
2022/03/10 09:43:59;;;;;;;12.23;10.68;;;31.40;35.90;;;;;;5128760;27;20069;-72
2022/03/10 09:46:25;;;;;;;13.38;9.90;;;30.80;35.30;;;;;;5123861;28;20050;-72
2022/03/10 09:48:52;;;;;;;14.35;10.45;;;31.10;35.50;;;;;;5125166;28;20191;-71
2022/03/10 09:51:24;;;;;;;13.27;10.05;;;31.40;35.30;;;;;;5128452;27;20066;-71
2022/03/10 09:53:50;;;;;;;12.73;10.32;;;32.20;35.10;;;;;;5120297;28;20043;-71
2022/03/10 09:56:20;;;;;;;15.98;11.30;;;32.60;33.70;;;;;;5107735;28;20333;-71
2022/03/10 09:58:46;;;;;;;15.07;10.23;;;32.80;33.70;;;;;;5105574;28;20048;-72
2022/03/10 10:01:11;;;;;;;14.75;10.50;;;32.60;33.50;;;;;;5124041;28;20089;-72
2022/03/10 10:03:37;;;;;;;12.30;9.90;;;32.90;33.30;;;;;;5125591;28;20407;-72
2022/03/10 10:06:03;;;;;;;15.57;10.20;;;33.10;33.00;;;;;;5121414;27;20381;-72
2022/03/10 10:08:34;;;;;;;12.60;10.20;;;32.60;32.70;;;;;;5108675;28;20130;-72
2022/03/10 10:11:00;;;;;;;14.50;9.95;;;32.80;33.10;;;;;;5114768;28;20130;-72
2022/03/10 10:13:37;;;;;;;15.88;9.98;;;33.70;32.90;;;;;;5105810;28;20089;-72
2022/03/10 10:16:10;;;;;;;14.80;10.25;;;34.20;32.60;;;;;;5111128;28;20515;-74
2022/03/10 10:18:37;;;;;;;12.95;9.95;;;34.10;32.10;;;;;;5117143;27;20112;-73
2022/03/10 10:21:05;;;;;;;13.60;10.25;;;34.50;32.70;;;;;;5109974;28;20120;-72
2022/03/10 10:23:32;;;;;;;13.23;10.15;;;35.00;31.90;;;;;;5110231;28;20075;-72
2022/03/10 10:26:04;;;;;;;11.07;9.55;;;35.00;31.80;;;;;;5124107;27;20062;-72
2022/03/10 10:28:35;;;;;;;12.88;9.85;;;35.70;32.00;;;;;;5129959;27;20035;-72
2022/03/10 10:31:02;;;;;;;12.65;9.90;;;35.70;31.30;;;;;;5133410;27;20042;-72
2022/03/10 10:33:31;;;;;;;15.15;10.30;;;35.70;31.60;;;;;;5131705;27;20047;-74
2022/03/10 10:36:14;;;;;;;15.85;10.05;;;36.10;31.40;;;;;;5128699;27;20161;-85
2022/03/10 10:38:42;;;;;;;13.18;9.43;;;36.80;31.70;;;;;;5127957;27;20039;-83
2022/03/10 10:41:34;;;;;;;11.05;9.32;;;37.10;31.60;;;;;;5132004;27;20054;-82
2022/03/10 10:44:04;;;;;;;11.55;9.70;;;37.50;31.10;;;;;;5130054;27;20547;-83
2022/03/10 10:46:35;;;;;;;14.50;9.55;;;37.30;30.40;;;;;;5129807;27;20043;-84
2022/03/10 10:49:10;;;;;;;12.18;9.75;;;36.80;30.10;;;;;;5115352;27;20421;-74
2022/03/10 10:51:37;;;;;;;14.10;9.75;;;36.20;30.00;;;;;;5109545;27;20058;-71
2022/03/10 10:54:08;;;;;;;12.57;9.90;;;35.50;30.20;;;;;;5128564;27;20039;-71
2022/03/10 10:56:35;;;;;;;15.07;10.45;;;35.60;30.30;;;;;;5130807;27;20062;-72
2022/03/10 10:59:03;;;;;;;13.75;10.68;;;36.30;30.00;;;;;;5130432;27;20035;-72
2022/03/10 11:01:36;;;;;;;11.82;10.10;;;36.60;30.00;;;;;;5128641;27;20083;-73
2022/03/10 11:04:04;;;;;;;11.17;9.80;;;36.90;29.70;;;;;;5121744;27;20369;-73
2022/03/10 11:06:31;;;;;;;16.08;10.43;;;37.60;29.70;;;;;;5122265;27;20497;-73
2022/03/10 11:08:57;;;;;;;13.27;10.07;;;37.60;29.40;;;;;;5120046;27;20047;-73
2022/03/10 11:11:24;;;;;;;11.35;9.85;;;37.90;29.70;;;;;;5132759;27;20183;-77
2022/03/10 11:13:51;;;;;;;11.23;9.27;;;38.40;29.50;;;;;;5103395;28;20100;-77
2022/03/10 11:16:18;;;;;;;13.75;10.13;;;38.90;29.40;;;;;;5120351;27;20058;-77
2022/03/10 11:18:49;;;;;;;13.10;9.52;;;39.70;29.50;;;;;;5127674;27;20058;-77
2022/03/10 11:21:24;;;;;;;11.20;9.55;;;39.20;29.30;;;;;;5131220;27;20092;-69
2022/03/10 11:24:03;;;;;;;13.93;9.93;;;39.10;29.10;;;;;;5125435;27;20400;-68
2022/03/10 11:26:45;;;;;;;12.32;9.90;;;38.60;28.80;;;;;;5115134;27;20039;-69
2022/03/10 11:29:12;;;;;;;13.35;9.90;;;38.50;29.10;;;;;;5118702;27;20036;-74
2022/03/10 11:31:38;;;;;;;12.52;9.63;;;38.70;28.70;;;;;;5125798;27;20039;-73
2022/03/10 11:34:07;;;;;;;11.23;9.98;;;38.30;28.70;;;;;;5129128;27;20571;-73
2022/03/10 11:36:33;;;;;;;15.40;10.60;;;37.60;28.50;;;;;;5128338;27;20088;-74
2022/03/10 11:39:07;;;;;;;11.48;9.70;;;37.30;28.70;;;;;;5125744;27;20086;-72
2022/03/10 11:41:48;;;;;;;12.30;10.40;;;36.60;28.90;;;;;;5113096;27;20404;-72
2022/03/10 11:44:20;;;;;;;13.57;10.63;;;35.90;28.00;;;;;;5106653;28;20067;-72
2022/03/10 11:46:53;;;;;;;12.63;10.65;;;34.20;28.60;;;;;;5086824;28;20164;-71
2022/03/10 11:49:19;;;;;;;17.20;10.70;;;33.40;28.90;;;;;;5103455;28;20147;-72
2022/03/10 11:51:53;;;;;;;13.57;10.57;;;33.30;29.30;;;;;;5123811;27;20062;-72
2022/03/10 11:54:25;;;;;;;14.05;10.43;;;33.10;29.30;;;;;;5125380;27;20505;-72
2022/03/10 11:56:51;;;;;;;11.63;10.32;;;33.40;29.20;;;;;;5127798;27;20457;-72
2022/03/10 11:59:23;;;;;;;14.48;10.52;;;33.50;29.20;;;;;;5145999;27;20142;-72
2022/03/10 12:01:50;;;;;;;12.60;10.68;;;33.50;29.00;;;;;;5108902;27;20041;-73
2022/03/10 12:04:17;;;;;;;14.60;10.98;;;33.50;28.90;;;;;;5145562;27;20584;-71
2022/03/10 12:06:58;;;;;;;17.90;10.63;;;34.30;29.10;;;;;;5127815;27;20046;-71
2022/03/10 12:09:25;;;;;;;11.98;10.40;;;34.80;29.30;;;;;;5128269;27;20042;-71
2022/03/10 12:11:51;;;;;;;14.55;10.82;;;35.30;29.10;;;;;;5126683;27;20536;-71
2022/03/10 12:14:28;;;;;;;11.63;10.40;;;35.60;29.10;;;;;;5146576;27;20123;-70
2022/03/10 12:16:54;;;;;;;13.07;10.60;;;36.00;29.10;;;;;;5128146;27;20157;-71
2022/03/10 12:19:40;;;;;;;14.45;10.27;;;36.10;29.00;;;;;;5107853;27;20159;-71
2022/03/10 12:22:09;;;;;;;13.15;10.57;;;35.90;28.80;;;;;;5142667;27;20062;-71
2022/03/10 12:24:35;;;;;;;12.60;10.90;;;34.50;28.40;;;;;;5127884;27;20084;-71
2022/03/10 12:27:02;;;;;;;12.15;10.80;;;33.70;28.80;;;;;;5147351;27;20118;-71
2022/03/10 12:29:31;;;;;;;15.80;11.48;;;32.60;29.10;;;;;;5145705;27;20107;-71
2022/03/10 12:32:03;;;;;;;13.35;11.18;;;31.00;29.70;;;;;;5128002;27;20046;-71
2022/03/10 12:34:30;;;;;;;13.43;11.63;;;28.70;30.50;;;;;;5126399;27;20551;-71
2022/03/10 12:36:59;;;;;;;18.25;11.95;;;26.90;31.50;;;;;;5145704;27;20050;-70